sensor_id;sensor_type;location;lat;lon;timestamp;pressure;altitude;pressure_sealevel;temperature;humidity
30714;BME280;17465;47.934;33.430;2024-03-08T00:01:03;57293.36;;;-140.43;80.76
30714;BME280;17465;47.934;33.430;2024-03-08T00:03:33;57284.89;;;-140.43;82.00
30714;BME280;17465;47.934;33.430;2024-03-08T00:06:04;57279.59;;;-140.43;81.50
30714;BME280;17465;47.934;33.430;2024-03-08T00:08:34;57270.06;;;-140.43;81.40
30714;BME280;17465;47.934;33.430;2024-03-08T00:11:05;57270.06;;;-140.43;81.40
30714;BME280;17465;47.934;33.430;2024-03-08T00:13:36;57273.24;;;-140.43;80.64
30714;BME280;17465;47.934;33.430;2024-03-08T00:16:08;57288.07;;;-140.43;80.55
30714;BME280;17465;47.934;33.430;2024-03-08T00:18:39;57244.65;;;-140.43;80.20
30714;BME280;17465;47.934;33.430;2024-03-08T00:21:09;57244.65;;;-140.43;80.20
30714;BME280;17465;47.934;33.430;2024-03-08T00:23:40;57264.77;;;-140.43;81.25
30714;BME280;17465;47.934;33.430;2024-03-08T00:26:11;57272.18;;;-140.43;83.05
30714;BME280;17465;47.934;33.430;2024-03-08T00:28:41;57277.48;;;-140.43;82.50
30714;BME280;17465;47.934;33.430;2024-03-08T00:31:12;57265.83;;;-140.43;82.72
30714;BME280;17465;47.934;33.430;2024-03-08T00:33:42;57292.30;;;-140.43;81.72
30714;BME280;17465;47.934;33.430;2024-03-08T00:36:12;57292.30;;;-140.43;81.72
30714;BME280;17465;47.934;33.430;2024-03-08T00:38:42;57265.83;;;-140.43;81.58
30714;BME280;17465;47.934;33.430;2024-03-08T00:41:13;57282.77;;;-140.43;81.92
30714;BME280;17465;47.934;33.430;2024-03-08T00:43:43;57282.77;;;-140.43;81.92
30714;BME280;17465;47.934;33.430;2024-03-08T00:46:13;57289.13;;;-140.43;81.25
30714;BME280;17465;47.934;33.430;2024-03-08T00:48:44;57273.24;;;-140.43;81.55
30714;BME280;17465;47.934;33.430;2024-03-08T00:51:14;57285.95;;;-140.43;81.86
30714;BME280;17465;47.934;33.430;2024-03-08T00:53:44;57278.54;;;-140.43;81.49
30714;BME280;17465;47.934;33.430;2024-03-08T00:56:14;57277.48;;;-140.43;81.01
30714;BME280;17465;47.934;33.430;2024-03-08T00:58:45;57292.30;;;-140.43;83.24
30714;BME280;17465;47.934;33.430;2024-03-08T01:01:15;57276.42;;;-140.43;82.24
30714;BME280;17465;47.934;33.430;2024-03-08T01:03:45;57276.42;;;-140.43;82.24
30714;BME280;17465;47.934;33.430;2024-03-08T01:06:16;57287.01;;;-140.43;82.14
30714;BME280;17465;47.934;33.430;2024-03-08T01:08:46;57309.25;;;-140.43;82.67
30714;BME280;17465;47.934;33.430;2024-03-08T01:11:17;57272.18;;;-140.43;82.86
30714;BME280;17465;47.934;33.430;2024-03-08T01:13:47;57298.66;;;-140.43;82.74
30714;BME280;17465;47.934;33.430;2024-03-08T01:16:19;57300.78;;;-140.43;82.30
30714;BME280;17465;47.934;33.430;2024-03-08T01:18:49;57300.78;;;-140.43;82.30
30714;BME280;17465;47.934;33.430;2024-03-08T01:21:21;57278.54;;;-140.43;81.85
30714;BME280;17465;47.934;33.430;2024-03-08T01:23:51;57278.54;;;-140.43;82.31
30714;BME280;17465;47.934;33.430;2024-03-08T01:26:21;57308.19;;;-140.43;85.00
30714;BME280;17465;47.934;33.430;2024-03-08T01:28:52;57272.18;;;-140.43;84.23
30714;BME280;17465;47.934;33.430;2024-03-08T01:31:22;57295.48;;;-140.43;82.72
30714;BME280;17465;47.934;33.430;2024-03-08T01:33:52;57295.48;;;-140.43;82.72
30714;BME280;17465;47.934;33.430;2024-03-08T01:36:22;57306.07;;;-140.43;84.48
30714;BME280;17465;47.934;33.430;2024-03-08T01:38:55;57297.60;;;-140.43;84.46
30714;BME280;17465;47.934;33.430;2024-03-08T01:41:26;57311.37;;;-140.43;88.12
30714;BME280;17465;47.934;33.430;2024-03-08T01:43:56;57306.07;;;-140.43;86.06
30714;BME280;17465;47.934;33.430;2024-03-08T01:46:26;57293.36;;;-140.43;84.36
30714;BME280;17465;47.934;33.430;2024-03-08T01:48:56;57300.78;;;-140.43;84.52
30714;BME280;17465;47.934;33.430;2024-03-08T01:51:28;57289.13;;;-140.43;83.71
30714;BME280;17465;47.934;33.430;2024-03-08T01:54:00;57280.66;;;-140.43;84.01
30714;BME280;17465;47.934;33.430;2024-03-08T01:56:32;57310.31;;;-140.43;85.04
30714;BME280;17465;47.934;33.430;2024-03-08T01:59:03;57310.31;;;-140.43;85.04
30714;BME280;17465;47.934;33.430;2024-03-08T02:01:34;57289.13;;;-140.43;84.71
30714;BME280;17465;47.934;33.430;2024-03-08T02:04:04;57289.13;;;-140.43;84.71
30714;BME280;17465;47.934;33.430;2024-03-08T02:06:35;57294.42;;;-140.43;84.95
30714;BME280;17465;47.934;33.430;2024-03-08T02:09:05;57293.36;;;-140.43;84.48
30714;BME280;17465;47.934;33.430;2024-03-08T02:11:35;57293.36;;;-140.43;84.48
30714;BME280;17465;47.934;33.430;2024-03-08T02:14:06;57288.07;;;-140.43;85.89
30714;BME280;17465;47.934;33.430;2024-03-08T02:16:36;57294.42;;;-140.43;86.43
30714;BME280;17465;47.934;33.430;2024-03-08T02:19:07;57320.90;;;-140.43;85.38
30714;BME280;17465;47.934;33.430;2024-03-08T02:21:37;57277.48;;;-140.43;85.42
30714;BME280;17465;47.934;33.430;2024-03-08T02:24:07;57278.54;;;-140.43;85.74
30714;BME280;17465;47.934;33.430;2024-03-08T02:26:37;57279.59;;;-140.43;84.58
30714;BME280;17465;47.934;33.430;2024-03-08T02:29:08;57280.66;;;-140.43;85.55
30714;BME280;17465;47.934;33.430;2024-03-08T02:31:39;57308.19;;;-140.43;85.76
30714;BME280;17465;47.934;33.430;2024-03-08T02:34:09;57297.60;;;-140.43;85.65
30714;BME280;17465;47.934;33.430;2024-03-08T02:36:39;57305.01;;;-140.43;84.28
30714;BME280;17465;47.934;33.430;2024-03-08T02:39:09;57305.01;;;-140.43;84.28
30714;BME280;17465;47.934;33.430;2024-03-08T02:41:39;57285.95;;;-140.43;85.26
30714;BME280;17465;47.934;33.430;2024-03-08T02:44:10;57316.66;;;-140.43;86.35
30714;BME280;17465;47.934;33.430;2024-03-08T02:46:40;57298.66;;;-140.43;86.80
30714;BME280;17465;47.934;33.430;2024-03-08T02:49:10;57320.90;;;-140.43;85.48
30714;BME280;17465;47.934;33.430;2024-03-08T02:51:40;57270.06;;;-140.43;85.07
30714;BME280;17465;47.934;33.430;2024-03-08T02:54:11;57277.48;;;-140.43;84.33
30714;BME280;17465;47.934;33.430;2024-03-08T02:56:41;57277.48;;;-140.43;84.33
30714;BME280;17465;47.934;33.430;2024-03-08T02:59:11;57308.19;;;-140.43;85.74
30714;BME280;17465;47.934;33.430;2024-03-08T03:01:41;57270.06;;;-140.43;85.47
30714;BME280;17465;47.934;33.430;2024-03-08T03:04:11;57297.60;;;-140.43;86.55
30714;BME280;17465;47.934;33.430;2024-03-08T03:06:42;57297.60;;;-140.43;86.55
30714;BME280;17465;47.934;33.430;2024-03-08T03:09:12;57292.30;;;-140.43;85.15
30714;BME280;17465;47.934;33.430;2024-03-08T03:11:45;57277.48;;;-140.43;85.86
30714;BME280;17465;47.934;33.430;2024-03-08T03:14:15;57308.19;;;-140.43;86.06
30714;BME280;17465;47.934;33.430;2024-03-08T03:16:46;57291.25;;;-140.43;85.57
30714;BME280;17465;47.934;33.430;2024-03-08T03:19:16;57288.07;;;-140.43;85.91
30714;BME280;17465;47.934;33.430;2024-03-08T03:21:46;57299.72;;;-140.43;85.21
30714;BME280;17465;47.934;33.430;2024-03-08T03:24:16;57310.31;;;-140.43;84.77
30714;BME280;17465;47.934;33.430;2024-03-08T03:26:53;57275.36;;;-140.43;85.56
30714;BME280;17465;47.934;33.430;2024-03-08T03:29:20;57314.55;;;-140.43;87.64
30714;BME280;17465;47.934;33.430;2024-03-08T03:31:50;57266.89;;;-140.43;86.14
30714;BME280;17465;47.934;33.430;2024-03-08T03:34:20;57290.18;;;-140.43;84.63
30714;BME280;17465;47.934;33.430;2024-03-08T03:36:52;57290.18;;;-140.43;84.63
30714;BME280;17465;47.934;33.430;2024-03-08T03:39:22;57276.42;;;-140.43;84.09
30714;BME280;17465;47.934;33.430;2024-03-08T03:41:53;57296.54;;;-140.43;84.52
30714;BME280;17465;47.934;33.430;2024-03-08T03:44:23;57296.54;;;-140.43;84.52
30714;BME280;17465;47.934;33.430;2024-03-08T03:46:53;57276.42;;;-140.43;84.85
30714;BME280;17465;47.934;33.430;2024-03-08T03:49:25;57284.89;;;-140.43;84.17
30714;BME280;17465;47.934;33.430;2024-03-08T03:51:55;57269.00;;;-140.43;84.89
30714;BME280;17465;47.934;33.430;2024-03-08T03:54:25;57291.25;;;-140.43;85.09
30714;BME280;17465;47.934;33.430;2024-03-08T03:56:56;57271.13;;;-140.43;85.54
30714;BME280;17465;47.934;33.430;2024-03-08T03:59:27;57265.83;;;-140.43;85.34
30714;BME280;17465;47.934;33.430;2024-03-08T04:01:57;57299.72;;;-140.43;83.71
30714;BME280;17465;47.934;33.430;2024-03-08T04:04:30;57291.25;;;-140.43;84.34
30714;BME280;17465;47.934;33.430;2024-03-08T04:07:11;57289.13;;;-140.43;84.86
30714;BME280;17465;47.934;33.430;2024-03-08T04:09:42;57273.24;;;-140.43;84.75
30714;BME280;17465;47.934;33.430;2024-03-08T04:12:18;57283.83;;;-140.43;85.19
30714;BME280;17465;47.934;33.430;2024-03-08T04:14:49;57317.72;;;-140.43;87.43
30714;BME280;17465;47.934;33.430;2024-03-08T04:17:19;57297.60;;;-140.43;88.26
30714;BME280;17465;47.934;33.430;2024-03-08T04:19:50;57276.42;;;-140.43;85.89
30714;BME280;17465;47.934;33.430;2024-03-08T04:22:20;57285.95;;;-140.43;86.45
30714;BME280;17465;47.934;33.430;2024-03-08T04:24:50;57279.59;;;-140.43;85.46
30714;BME280;17465;47.934;33.430;2024-03-08T04:27:21;57279.59;;;-140.43;85.46
30714;BME280;17465;47.934;33.430;2024-03-08T04:29:53;57317.72;;;-140.43;87.64
30714;BME280;17465;47.934;33.430;2024-03-08T04:32:24;57284.89;;;-140.43;87.67
30714;BME280;17465;47.934;33.430;2024-03-08T04:34:54;57306.07;;;-140.43;86.34
30714;BME280;17465;47.934;33.430;2024-03-08T04:37:25;57258.41;;;-140.43;86.23
30714;BME280;17465;47.934;33.430;2024-03-08T04:39:55;57258.41;;;-140.43;86.23
30714;BME280;17465;47.934;33.430;2024-03-08T04:42:26;57292.30;;;-140.43;85.21
30714;BME280;17465;47.934;33.430;2024-03-08T04:45:00;57308.19;;;-140.43;87.19
30714;BME280;17465;47.934;33.430;2024-03-08T04:47:31;57269.00;;;-140.43;84.73
30714;BME280;17465;47.934;33.430;2024-03-08T04:50:04;57285.95;;;-140.43;88.16
30714;BME280;17465;47.934;33.430;2024-03-08T04:52:35;57292.30;;;-140.43;85.07
30714;BME280;17465;47.934;33.430;2024-03-08T04:55:06;57294.42;;;-140.43;85.74
30714;BME280;17465;47.934;33.430;2024-03-08T04:57:39;57299.72;;;-140.43;84.75
30714;BME280;17465;47.934;33.430;2024-03-08T05:00:13;57280.66;;;-140.43;83.85
30714;BME280;17465;47.934;33.430;2024-03-08T05:02:47;57293.36;;;-140.43;83.56
30714;BME280;17465;47.934;33.430;2024-03-08T05:05:18;57282.77;;;-140.43;82.83
30714;BME280;17465;47.934;33.430;2024-03-08T05:07:48;57287.01;;;-140.43;82.95
30714;BME280;17465;47.934;33.430;2024-03-08T05:10:18;57277.48;;;-140.43;81.98
30714;BME280;17465;47.934;33.430;2024-03-08T05:12:51;57263.71;;;-140.43;81.36
30714;BME280;17465;47.934;33.430;2024-03-08T05:15:24;57263.71;;;-140.43;81.36
30714;BME280;17465;47.934;33.430;2024-03-08T05:17:55;57274.30;;;-140.43;82.29
30714;BME280;17465;47.934;33.430;2024-03-08T05:20:29;57274.30;;;-140.43;82.29
30714;BME280;17465;47.934;33.430;2024-03-08T05:22:59;57253.12;;;-140.43;82.33
30714;BME280;17465;47.934;33.430;2024-03-08T05:25:30;57301.84;;;-140.43;84.46
30714;BME280;17465;47.934;33.430;2024-03-08T05:28:05;57253.12;;;-140.43;82.88
30714;BME280;17465;47.934;33.430;2024-03-08T05:30:34;57253.12;;;-140.43;82.88
30714;BME280;17465;47.934;33.430;2024-03-08T05:33:04;57266.89;;;-140.43;83.66
30714;BME280;17465;47.934;33.430;2024-03-08T05:35:35;57246.77;;;-140.43;81.74
30714;BME280;17465;47.934;33.430;2024-03-08T05:38:05;57278.54;;;-140.43;81.40
30714;BME280;17465;47.934;33.430;2024-03-08T05:40:35;57278.54;;;-140.43;81.40
30714;BME280;17465;47.934;33.430;2024-03-08T05:43:06;57257.36;;;-140.43;80.01
30714;BME280;17465;47.934;33.430;2024-03-08T05:45:36;57270.06;;;-140.43;80.26
30714;BME280;17465;47.934;33.430;2024-03-08T05:48:07;57248.88;;;-140.43;80.19
30714;BME280;17465;47.934;33.430;2024-03-08T05:50:38;57248.88;;;-140.43;80.19
30714;BME280;17465;47.934;33.430;2024-03-08T05:53:08;57273.24;;;-140.43;79.41
30714;BME280;17465;47.934;33.430;2024-03-08T05:55:38;57236.18;;;-140.43;79.37
30714;BME280;17465;47.934;33.430;2024-03-08T05:58:09;57254.18;;;-140.43;80.12
30714;BME280;17465;47.934;33.430;2024-03-08T06:00:39;57261.59;;;-140.43;79.46
30714;BME280;17465;47.934;33.430;2024-03-08T06:03:10;57255.24;;;-140.43;79.40
30714;BME280;17465;47.934;33.430;2024-03-08T06:05:40;57260.54;;;-140.43;79.29
30714;BME280;17465;47.934;33.430;2024-03-08T06:08:11;57260.54;;;-140.43;79.29
30714;BME280;17465;47.934;33.430;2024-03-08T06:10:41;57265.83;;;-140.43;79.17
30714;BME280;17465;47.934;33.430;2024-03-08T06:13:13;57236.18;;;-140.43;78.92
30714;BME280;17465;47.934;33.430;2024-03-08T06:15:43;57259.47;;;-140.43;78.00
30714;BME280;17465;47.934;33.430;2024-03-08T06:18:13;57251.00;;;-140.43;78.55
30714;BME280;17465;47.934;33.430;2024-03-08T06:20:44;57241.47;;;-140.43;78.25
30714;BME280;17465;47.934;33.430;2024-03-08T06:23:16;57241.47;;;-140.43;78.25
30714;BME280;17465;47.934;33.430;2024-03-08T06:25:47;57264.77;;;-140.43;78.31
30714;BME280;17465;47.934;33.430;2024-03-08T06:28:17;57245.71;;;-140.43;78.51
30714;BME280;17465;47.934;33.430;2024-03-08T06:30:47;57265.83;;;-140.43;79.61
30714;BME280;17465;47.934;33.430;2024-03-08T06:33:27;57265.83;;;-140.43;79.61
30714;BME280;17465;47.934;33.430;2024-03-08T06:35:54;57261.59;;;-140.43;78.23
30714;BME280;17465;47.934;33.430;2024-03-08T06:38:28;57239.35;;;-140.43;78.50
30714;BME280;17465;47.934;33.430;2024-03-08T06:41:01;57255.24;;;-140.43;78.23
30714;BME280;17465;47.934;33.430;2024-03-08T06:43:33;57222.41;;;-140.43;77.74
30714;BME280;17465;47.934;33.430;2024-03-08T06:46:04;57247.82;;;-140.43;78.06
30714;BME280;17465;47.934;33.430;2024-03-08T06:48:34;57244.65;;;-140.43;77.31
30714;BME280;17465;47.934;33.430;2024-03-08T06:51:09;57217.11;;;-140.43;77.07
30714;BME280;17465;47.934;33.430;2024-03-08T06:53:41;57212.87;;;-140.43;77.18
30714;BME280;17465;47.934;33.430;2024-03-08T06:56:18;57249.95;;;-140.43;76.82
30714;BME280;17465;47.934;33.430;2024-03-08T06:58:46;57239.35;;;-140.43;76.18
30714;BME280;17465;47.934;33.430;2024-03-08T07:01:17;57225.59;;;-140.43;75.16
30714;BME280;17465;47.934;33.430;2024-03-08T07:03:53;57230.88;;;-140.43;75.84
30714;BME280;17465;47.934;33.430;2024-03-08T07:06:23;57235.12;;;-140.43;75.46
30714;BME280;17465;47.934;33.430;2024-03-08T07:12:43;57233.00;;;-140.43;74.35
30714;BME280;17465;47.934;33.430;2024-03-08T07:15:43;57233.00;;;-140.43;74.35
30714;BME280;17465;47.934;33.430;2024-03-08T07:18:18;57229.82;;;-140.43;75.64
30714;BME280;17465;47.934;33.430;2024-03-08T07:20:45;57236.18;;;-140.43;74.36
30714;BME280;17465;47.934;33.430;2024-03-08T07:23:16;57239.35;;;-140.43;74.19
30714;BME280;17465;47.934;33.430;2024-03-08T07:25:49;57239.35;;;-140.43;74.19
30714;BME280;17465;47.934;33.430;2024-03-08T07:28:20;57240.41;;;-140.43;73.81
30714;BME280;17465;47.934;33.430;2024-03-08T07:30:54;57240.41;;;-140.43;73.81
30714;BME280;17465;47.934;33.430;2024-03-08T07:33:25;57255.24;;;-140.43;73.70
30714;BME280;17465;47.934;33.430;2024-03-08T07:35:55;57211.82;;;-140.43;72.79
30714;BME280;17465;47.934;33.430;2024-03-08T07:38:34;57226.64;;;-140.43;72.92
30714;BME280;17465;47.934;33.430;2024-03-08T07:41:01;57226.64;;;-140.43;72.92
30714;BME280;17465;47.934;33.430;2024-03-08T07:43:33;57235.12;;;-140.43;72.59
30714;BME280;17465;47.934;33.430;2024-03-08T07:46:05;57187.46;;;-140.43;72.91
30714;BME280;17465;47.934;33.430;2024-03-08T07:48:39;57244.65;;;-140.43;73.62
30714;BME280;17465;47.934;33.430;2024-03-08T07:51:11;57205.46;;;-140.43;72.24
30714;BME280;17465;47.934;33.430;2024-03-08T07:53:47;57230.88;;;-140.43;72.46
30714;BME280;17465;47.934;33.430;2024-03-08T07:56:23;57230.88;;;-140.43;72.46
30714;BME280;17465;47.934;33.430;2024-03-08T07:58:56;57229.82;;;-140.43;72.16
30714;BME280;17465;47.934;33.430;2024-03-08T08:01:27;57230.88;;;-140.43;72.26
30714;BME280;17465;47.934;33.430;2024-03-08T08:07:20;57215.00;;;-140.43;71.05
30714;BME280;17465;47.934;33.430;2024-03-08T08:10:02;57218.17;;;-140.43;71.53
30714;BME280;17465;47.934;33.430;2024-03-08T08:12:26;57218.17;;;-140.43;71.53
30714;BME280;17465;47.934;33.430;2024-03-08T08:14:57;57212.87;;;-140.43;70.50
30714;BME280;17465;47.934;33.430;2024-03-08T08:17:28;57230.88;;;-140.43;71.13
30714;BME280;17465;47.934;33.430;2024-03-08T08:19:59;57229.82;;;-140.43;69.93
30714;BME280;17465;47.934;33.430;2024-03-08T08:22:29;57240.41;;;-140.43;70.78
30714;BME280;17465;47.934;33.430;2024-03-08T08:24:59;57224.53;;;-140.43;71.12
30714;BME280;17465;47.934;33.430;2024-03-08T08:27:30;57235.12;;;-140.43;71.07
30714;BME280;17465;47.934;33.430;2024-03-08T08:30:00;57211.82;;;-140.43;70.70
30714;BME280;17465;47.934;33.430;2024-03-08T08:32:30;57211.82;;;-140.43;70.70
30714;BME280;17465;47.934;33.430;2024-03-08T08:35:03;57216.05;;;-140.43;70.70
30714;BME280;17465;47.934;33.430;2024-03-08T08:37:34;57246.77;;;-140.43;70.17
30714;BME280;17465;47.934;33.430;2024-03-08T08:40:05;57253.12;;;-140.43;69.30
30714;BME280;17465;47.934;33.430;2024-03-08T08:42:36;57212.87;;;-140.43;69.74
30714;BME280;17465;47.934;33.430;2024-03-08T08:45:07;57226.64;;;-140.43;70.50
30714;BME280;17465;47.934;33.430;2024-03-08T08:47:39;57223.46;;;-140.43;70.13
30714;BME280;17465;47.934;33.430;2024-03-08T08:50:10;57208.64;;;-140.43;71.09
30714;BME280;17465;47.934;33.430;2024-03-08T08:52:43;57210.76;;;-140.43;70.71
30714;BME280;17465;47.934;33.430;2024-03-08T08:55:14;57234.06;;;-140.43;71.19
30714;BME280;17465;47.934;33.430;2024-03-08T08:57:46;57238.29;;;-140.43;70.20
30714;BME280;17465;47.934;33.430;2024-03-08T09:00:18;57238.29;;;-140.43;70.20
30714;BME280;17465;47.934;33.430;2024-03-08T09:02:49;57248.88;;;-140.43;70.68
30714;BME280;17465;47.934;33.430;2024-03-08T09:05:19;57248.88;;;-140.43;70.68
30714;BME280;17465;47.934;33.430;2024-03-08T09:07:49;57223.46;;;-140.43;70.22
30714;BME280;17465;47.934;33.430;2024-03-08T09:10:20;57230.88;;;-140.43;70.48
30714;BME280;17465;47.934;33.430;2024-03-08T09:12:50;57230.88;;;-140.43;70.48
30714;BME280;17465;47.934;33.430;2024-03-08T09:15:21;57235.12;;;-140.43;69.98
30714;BME280;17465;47.934;33.430;2024-03-08T09:17:51;57235.12;;;-140.43;69.98
30714;BME280;17465;47.934;33.430;2024-03-08T09:20:21;57237.23;;;-140.43;70.88
30714;BME280;17465;47.934;33.430;2024-03-08T09:22:52;57248.88;;;-140.43;71.07
30714;BME280;17465;47.934;33.430;2024-03-08T09:25:22;57218.17;;;-140.43;69.91
30714;BME280;17465;47.934;33.430;2024-03-08T09:27:52;57218.17;;;-140.43;69.91
30714;BME280;17465;47.934;33.430;2024-03-08T09:30:22;57230.88;;;-140.43;70.88
30714;BME280;17465;47.934;33.430;2024-03-08T09:32:53;57230.88;;;-140.43;70.72
30714;BME280;17465;47.934;33.430;2024-03-08T09:35:25;57230.88;;;-140.43;70.72
30714;BME280;17465;47.934;33.430;2024-03-08T09:37:55;57236.18;;;-140.43;70.20
30714;BME280;17465;47.934;33.430;2024-03-08T09:40:25;57198.05;;;-140.43;70.57
30714;BME280;17465;47.934;33.430;2024-03-08T09:42:56;57206.52;;;-140.43;70.58
30714;BME280;17465;47.934;33.430;2024-03-08T09:45:26;57223.46;;;-140.43;70.97
30714;BME280;17465;47.934;33.430;2024-03-08T09:47:58;57212.87;;;-140.43;70.70
30714;BME280;17465;47.934;33.430;2024-03-08T09:50:28;57208.64;;;-140.43;70.48
30714;BME280;17465;47.934;33.430;2024-03-08T09:52:58;57207.58;;;-140.43;70.70
30714;BME280;17465;47.934;33.430;2024-03-08T09:55:29;57207.58;;;-140.43;70.70
30714;BME280;17465;47.934;33.430;2024-03-08T09:58:05;57226.64;;;-140.43;70.13
30714;BME280;17465;47.934;33.430;2024-03-08T10:00:34;57233.00;;;-140.43;70.29
30714;BME280;17465;47.934;33.430;2024-03-08T10:03:04;57245.71;;;-140.43;69.64
30714;BME280;17465;47.934;33.430;2024-03-08T10:05:35;57223.46;;;-140.43;69.35
30714;BME280;17465;47.934;33.430;2024-03-08T10:08:05;57231.94;;;-140.43;70.89
30714;BME280;17465;47.934;33.430;2024-03-08T10:10:42;57231.94;;;-140.43;70.89
30714;BME280;17465;47.934;33.430;2024-03-08T10:13:08;57210.76;;;-140.43;70.68
30714;BME280;17465;47.934;33.430;2024-03-08T10:15:40;57210.76;;;-140.43;70.68
30714;BME280;17465;47.934;33.430;2024-03-08T10:18:12;57219.23;;;-140.43;71.04
30714;BME280;17465;47.934;33.430;2024-03-08T10:20:45;57231.94;;;-140.43;70.46
30714;BME280;17465;47.934;33.430;2024-03-08T10:23:14;57208.64;;;-140.43;69.95
30714;BME280;17465;47.934;33.430;2024-03-08T10:25:44;57224.53;;;-140.43;69.30
30714;BME280;17465;47.934;33.430;2024-03-08T10:28:14;57224.53;;;-140.43;69.30
30714;BME280;17465;47.934;33.430;2024-03-08T10:30:47;57225.59;;;-140.43;68.63
30714;BME280;17465;47.934;33.430;2024-03-08T10:33:23;57216.05;;;-140.43;68.08
30714;BME280;17465;47.934;33.430;2024-03-08T10:35:49;57242.53;;;-140.43;68.57
30714;BME280;17465;47.934;33.430;2024-03-08T10:38:23;57212.87;;;-140.43;67.83
30714;BME280;17465;47.934;33.430;2024-03-08T10:40:54;57187.46;;;-140.43;68.45
30714;BME280;17465;47.934;33.430;2024-03-08T10:43:25;57230.88;;;-140.43;67.59
30714;BME280;17465;47.934;33.430;2024-03-08T10:46:06;57230.88;;;-140.43;67.59
30714;BME280;17465;47.934;33.430;2024-03-08T10:48:38;57224.53;;;-140.43;68.04
30714;BME280;17465;47.934;33.430;2024-03-08T10:51:11;57227.70;;;-140.43;69.53
30714;BME280;17465;47.934;33.430;2024-03-08T10:53:42;57227.70;;;-140.43;69.53
30714;BME280;17465;47.934;33.430;2024-03-08T10:56:12;57237.23;;;-140.43;69.21
30714;BME280;17465;47.934;33.430;2024-03-08T10:58:43;57237.23;;;-140.43;69.21
30714;BME280;17465;47.934;33.430;2024-03-08T11:01:14;57233.00;;;-140.43;68.06
30714;BME280;17465;47.934;33.430;2024-03-08T11:03:45;57208.64;;;-140.43;67.24
30714;BME280;17465;47.934;33.430;2024-03-08T11:07:02;57231.94;;;-140.43;68.10
30714;BME280;17465;47.934;33.430;2024-03-08T11:08:59;57209.70;;;-140.43;67.05
30714;BME280;17465;47.934;33.430;2024-03-08T11:11:32;57234.06;;;-140.43;67.88
30714;BME280;17465;47.934;33.430;2024-03-08T11:16:59;57203.34;;;-140.43;68.11
30714;BME280;17465;47.934;33.430;2024-03-08T11:19:31;57212.87;;;-140.43;65.77
30714;BME280;17465;47.934;33.430;2024-03-08T11:22:04;57212.87;;;-140.43;65.77
30714;BME280;17465;47.934;33.430;2024-03-08T11:24:38;57254.18;;;-140.43;62.92
30714;BME280;17465;47.934;33.430;2024-03-08T11:27:09;57221.35;;;-140.43;64.39
30714;BME280;17465;47.934;33.430;2024-03-08T11:29:40;57217.11;;;-140.43;64.52
30714;BME280;17465;47.934;33.430;2024-03-08T11:32:17;57259.47;;;-140.43;64.11
30714;BME280;17465;47.934;33.430;2024-03-08T11:34:49;57222.41;;;-140.43;64.16
30714;BME280;17465;47.934;33.430;2024-03-08T11:37:21;57238.29;;;-140.43;64.32
30714;BME280;17465;47.934;33.430;2024-03-08T11:39:58;57238.29;;;-140.43;63.54
30714;BME280;17465;47.934;33.430;2024-03-08T11:42:29;57247.82;;;-140.43;64.44
30714;BME280;17465;47.934;33.430;2024-03-08T11:44:59;57239.35;;;-140.43;64.90
30714;BME280;17465;47.934;33.430;2024-03-08T11:47:30;57223.46;;;-140.43;64.92
30714;BME280;17465;47.934;33.430;2024-03-08T11:50:00;57248.88;;;-140.43;64.66
30714;BME280;17465;47.934;33.430;2024-03-08T11:52:31;57248.88;;;-140.43;64.66
30714;BME280;17465;47.934;33.430;2024-03-08T11:55:02;57212.87;;;-140.43;63.39
30714;BME280;17465;47.934;33.430;2024-03-08T11:57:39;57212.87;;;-140.43;63.39
30714;BME280;17465;47.934;33.430;2024-03-08T12:00:19;57259.47;;;-140.43;61.58
30714;BME280;17465;47.934;33.430;2024-03-08T12:03:12;57253.12;;;-140.43;62.40
30714;BME280;17465;47.934;33.430;2024-03-08T12:08:37;57259.47;;;-140.43;61.84
30714;BME280;17465;47.934;33.430;2024-03-08T12:11:20;57259.47;;;-140.43;62.68
30714;BME280;17465;47.934;33.430;2024-03-08T12:14:07;57253.12;;;-140.43;62.77
30714;BME280;17465;47.934;33.430;2024-03-08T12:16:39;57253.12;;;-140.43;62.77
30714;BME280;17465;47.934;33.430;2024-03-08T12:19:19;57223.46;;;-140.43;62.16
30714;BME280;17465;47.934;33.430;2024-03-08T12:21:54;57282.77;;;-140.43;62.36
30714;BME280;17465;47.934;33.430;2024-03-08T12:24:40;57246.77;;;-140.43;62.87
30714;BME280;17465;47.934;33.430;2024-03-08T12:27:27;57274.30;;;-140.43;62.46
30714;BME280;17465;47.934;33.430;2024-03-08T12:29:57;57274.30;;;-140.43;62.46
30714;BME280;17465;47.934;33.430;2024-03-08T12:32:27;57236.18;;;-140.43;62.19
30714;BME280;17465;47.934;33.430;2024-03-08T12:38:37;57264.77;;;-140.43;62.53
30714;BME280;17465;47.934;33.430;2024-03-08T12:41:14;57236.18;;;-140.43;62.11
30714;BME280;17465;47.934;33.430;2024-03-08T12:43:45;57255.24;;;-140.43;62.71
30714;BME280;17465;47.934;33.430;2024-03-08T12:46:19;57249.95;;;-140.43;62.13
30714;BME280;17465;47.934;33.430;2024-03-08T12:48:50;57254.18;;;-140.43;63.03
30714;BME280;17465;47.934;33.430;2024-03-08T12:51:26;57256.30;;;-140.43;61.70
30714;BME280;17465;47.934;33.430;2024-03-08T12:53:56;57260.54;;;-140.43;62.10
30714;BME280;17465;47.934;33.430;2024-03-08T12:56:32;57260.54;;;-140.43;62.10
30714;BME280;17465;47.934;33.430;2024-03-08T12:59:02;57291.25;;;-140.43;61.84
30714;BME280;17465;47.934;33.430;2024-03-08T13:01:33;57274.30;;;-140.43;61.60
30714;BME280;17465;47.934;33.430;2024-03-08T13:04:04;57295.48;;;-140.43;61.05
30714;BME280;17465;47.934;33.430;2024-03-08T13:06:39;57295.48;;;-140.43;61.05
30714;BME280;17465;47.934;33.430;2024-03-08T13:09:11;57276.42;;;-140.43;61.77